Time;durP1;ratioP1;P1;durP2;ratioP2;P2;SDS_P1;SDS_P2;PMS_P1;PMS_P2;Temp;Humidity;BMP_temperature;BMP_pressure;BME280_temperature;BME280_humidity;BME280_pressure;Samples;Min_cycle;Max_cycle;Signal;HPM_P1;HPM_P2
2023/10/18 00:29:47;;;;;;;21.80;16.75;;;5.30;1.00;;;;;;4851936;23;20246;-92
2023/10/18 00:45:53;;;;;;;26.15;16.75;;;5.00;1.00;;;;;;4862586;29;20235;-90
2023/10/18 01:42:48;;;;;;;29.30;16.63;;;4.70;99.90;;;;;;5088994;23;20234;-89
2023/10/18 04:53:14;;;;;;;14.02;10.75;;;3.50;99.90;;;;;;1815282;23;20285;-90
2023/10/18 06:09:27;;;;;;;11.65;10.45;;;3.40;99.90;;;;;;4277460;23;20245;-90
2023/10/18 06:15:49;;;;;;;13.40;10.18;;;3.50;99.90;;;;;;4962406;28;20213;-91
2023/10/18 06:18:26;;;;;;;12.60;9.95;;;3.80;99.90;;;;;;4965354;28;20226;-91
2023/10/18 06:21:08;;;;;;;16.10;10.50;;;3.70;99.90;;;;;;4962842;29;20657;-90
2023/10/18 06:37:01;;;;;;;17.58;12.75;;;4.60;99.90;;;;;;5157030;27;20527;-89
2023/10/18 06:39:35;;;;;;;19.40;11.25;;;4.00;99.90;;;;;;5153622;28;20195;-89
2023/10/18 06:42:06;;;;;;;15.20;10.50;;;;;;;;;;5147047;28;20181;-91
2023/10/18 06:44:33;;;;;;;13.65;11.85;;;4.10;99.90;;;;;;5140360;28;20551;-91
2023/10/18 06:47:06;;;;;;;13.73;11.07;;;;;;;;;;5143504;27;20257;-90
2023/10/18 06:59:04;;;;;;;12.52;11.20;;;4.20;99.90;;;;;;4975622;28;20343;-89
2023/10/18 07:02:27;;;;;;;14.05;11.45;;;4.30;99.90;;;;;;4974172;28;20220;-89
2023/10/18 07:08:40;;;;;;;14.63;13.07;;;4.40;99.90;;;;;;4955144;28;20337;-89
2023/10/18 07:17:55;;;;;;;15.68;11.60;;;4.80;99.90;;;;;;4976331;28;20206;-90
2023/10/18 07:20:49;;;;;;;16.83;10.60;;;4.90;99.90;;;;;;5040099;28;20207;-90
2023/10/18 07:26:45;;;;;;;16.50;10.75;;;5.10;99.90;;;;;;5033986;28;20220;-91
2023/10/18 07:29:46;;;;;;;31.02;13.65;;;5.10;99.90;;;;;;4954804;28;20350;-90
2023/10/18 07:46:57;;;;;;;;;;;;;;;;;;;;;
2023/10/18 08:21:06;;;;;;;17.10;11.75;;;6.60;99.90;;;;;;4860071;28;20251;-92
2023/10/18 08:23:40;;;;;;;13.50;11.40;;;6.60;99.90;;;;;;4991254;28;20237;-93
2023/10/18 08:26:12;;;;;;;17.05;11.32;;;;;;;;;;4990291;28;20235;-92
2023/10/18 08:28:46;;;;;;;13.73;12.00;;;;;;;;;;4982415;28;20225;-93
2023/10/18 08:31:32;;;;;;;19.02;12.30;;;6.80;1.00;;;;;;4995054;28;20246;-93
2023/10/18 08:33:59;;;;;;;20.77;13.52;;;;;;;;;;4999936;28;20194;-92
2023/10/18 08:36:43;;;;;;;16.70;12.98;;;6.90;99.90;;;;;;4984920;28;20240;-92
2023/10/18 08:39:16;;;;;;;15.30;11.55;;;;;;;;;;4999619;28;20216;-94
2023/10/18 08:44:26;;;;;;;13.40;10.50;;;7.50;1.00;;;;;;4999314;28;20217;-92
2023/10/18 08:46:55;;;;;;;16.00;11.80;;;;;;;;;;4995128;28;20487;-91
2023/10/18 08:49:32;;;;;;;12.40;10.32;;;7.40;58.90;;;;;;4988590;28;20477;-91
2023/10/18 09:01:09;;;;;;;16.30;12.80;;;;;;;;;;5037320;28;20426;-93
2023/10/18 09:03:36;;;;;;;11.40;8.93;;;;;;;;;;5033822;28;20454;-92
2023/10/18 09:06:08;;;;;;;15.13;11.63;;;7.90;99.90;;;;;;5029935;28;20475;-92
2023/10/18 09:08:42;;;;;;;12.60;10.87;;;8.20;1.00;;;;;;5028584;28;20482;-92
2023/10/18 09:11:21;;;;;;;12.47;10.80;;;8.20;99.90;;;;;;5024894;28;20402;-92
2023/10/18 09:16:37;;;;;;;19.43;11.30;;;8.30;1.00;;;;;;5022049;28;20432;-92
2023/10/18 09:19:06;;;;;;;16.60;11.73;;;;;;;;;;5028449;28;20466;-93
2023/10/18 09:21:43;;;;;;;12.17;10.87;;;;;;;;;;5021983;28;20505;-90
2023/10/18 09:24:11;;;;;;;16.23;11.60;;;8.80;1.00;;;;;;5030505;28;20439;-93
2023/10/18 09:26:43;;;;;;;15.30;10.27;;;8.60;99.90;;;;;;5029314;28;20511;-91
2023/10/18 09:29:10;;;;;;;13.87;11.50;;;;;;;;;;5024695;28;20483;-91
2023/10/18 09:31:52;;;;;;;12.93;9.30;;;8.70;1.00;;;;;;5021880;28;21011;-91
2023/10/18 09:39:46;;;;;;;12.07;9.93;;;9.00;1.00;;;;;;5029992;28;20455;-91
2023/10/18 09:42:50;;;;;;;11.40;9.33;;;9.10;99.90;;;;;;5029466;28;20448;-91
2023/10/18 09:45:28;;;;;;;15.23;10.07;;;;;;;;;;5023105;28;20545;-91
2023/10/18 09:47:58;;;;;;;10.70;8.50;;;;;;;;;;5024261;28;20455;-91
2023/10/18 09:50:36;;;;;;;11.40;10.20;;;9.40;99.90;;;;;;5025242;28;20945;-91
2023/10/18 09:53:08;;;;;;;13.23;9.03;;;9.40;99.90;;;;;;5023726;28;21049;-91
2023/10/18 09:55:41;;;;;;;10.83;8.97;;;9.50;1.00;;;;;;5024403;28;20447;-91
2023/10/18 09:58:18;;;;;;;9.90;8.93;;;9.60;99.90;;;;;;5023392;28;20469;-91
2023/10/18 10:03:52;;;;;;;9.17;7.87;;;;;;;;;;5021484;28;20501;-90
2023/10/18 10:06:23;;;;;;;9.80;8.80;;;9.70;99.90;;;;;;5021043;28;20887;-90
2023/10/18 10:09:11;;;;;;;10.43;8.10;;;9.80;1.00;;;;;;5037613;28;20463;-90
2023/10/18 10:11:45;;;;;;;10.60;7.60;;;9.80;99.90;;;;;;5024879;28;20819;-90
2023/10/18 10:14:30;;;;;;;9.60;8.00;;;9.80;99.90;;;;;;5021999;28;20432;-92
2023/10/18 10:20:10;;;;;;;9.67;8.07;;;10.10;99.90;;;;;;5023249;28;20459;-91
2023/10/18 10:28:14;;;;;;;7.53;6.83;;;10.20;58.70;;;;;;4997553;28;20452;-94
2023/10/18 10:39:35;;;;;;;9.33;6.73;;;10.40;1.00;;;;;;4986711;28;20493;-91
2023/10/18 10:45:02;;;;;;;7.80;6.67;;;10.70;99.90;;;;;;4985800;28;20934;-91
2023/10/18 10:47:33;;;;;;;8.17;6.80;;;10.30;1.00;;;;;;4987700;28;20426;-92
2023/10/18 10:55:38;;;;;;;6.20;5.37;;;10.50;99.90;;;;;;4989277;28;20445;-90
2023/10/18 10:58:15;;;;;;;9.33;7.20;;;10.60;1.00;;;;;;4985643;28;20548;-90
2023/10/18 11:01:08;;;;;;;11.10;6.20;;;10.50;1.00;;;;;;4983331;28;20437;-90
2023/10/18 11:03:52;;;;;;;6.43;5.83;;;10.50;99.90;;;;;;4984326;28;20440;-91
2023/10/18 11:06:26;;;;;;;6.43;5.37;;;10.90;61.40;;;;;;4997205;28;20480;-93
2023/10/18 11:08:57;;;;;;;5.90;5.30;;;11.10;99.90;;;;;;4998715;28;20461;-92
2023/10/18 11:11:27;;;;;;;6.73;6.13;;;10.80;1.00;;;;;;4999522;28;20428;-93
2023/10/18 11:13:57;;;;;;;8.00;6.57;;;11.10;99.90;;;;;;5002477;28;20488;-92
2023/10/18 11:21:35;;;;;;;5.73;5.10;;;;;;;;;;4519279;23;20463;-92
2023/10/18 11:27:09;;;;;;;7.50;5.43;;;11.00;1.00;;;;;;5011906;28;20473;-91
2023/10/18 11:29:41;;;;;;;7.60;5.87;;;10.80;1.00;;;;;;5033495;28;20453;-94
2023/10/18 11:40:15;;;;;;;6.17;5.67;;;11.20;1.00;;;;;;5017997;26;20530;-90
2023/10/18 11:43:05;;;;;;;11.53;6.63;;;11.20;1.00;;;;;;5009680;28;20414;-90
2023/10/18 13:47:11;;;;;;;5.90;5.40;;;11.80;1.00;;;;;;4969603;28;20967;-94
2023/10/18 14:05:55;;;;;;;5.27;4.77;;;11.70;1.00;;;;;;5926275;23;20455;-92
2023/10/18 14:18:58;;;;;;;6.07;4.83;;;11.80;13.00;;;;;;5825174;23;20492;-92
2023/10/18 14:21:31;;;;;;;10.90;5.20;;;11.60;1.00;;;;;;4981608;28;20457;-90
2023/10/18 14:24:01;;;;;;;5.77;5.17;;;;;;;;;;4986021;28;20461;-90
2023/10/18 14:26:34;;;;;;;6.47;4.90;;;11.50;1.00;;;;;;4986773;28;20489;-89
2023/10/18 14:29:08;;;;;;;7.40;4.67;;;11.80;1.00;;;;;;5004932;28;20460;-89
2023/10/18 14:31:41;;;;;;;6.07;4.87;;;;;;;;;;5018221;28;20439;-90
2023/10/18 14:34:24;;;;;;;4.87;4.40;;;11.60;1.00;;;;;;5017862;28;20444;-89
2023/10/18 14:37:00;;;;;;;7.50;5.00;;;11.40;11.40;;;;;;5018101;28;20432;-90
2023/10/18 14:39:58;;;;;;;6.33;5.33;;;11.50;1.00;;;;;;5017565;28;20474;-90
2023/10/18 14:42:29;;;;;;;5.53;5.03;;;;;;;;;;5012576;28;20471;-91
2023/10/18 14:45:06;;;;;;;6.33;5.30;;;11.50;1.00;;;;;;5014873;28;20497;-90
2023/10/18 14:47:44;;;;;;;6.23;5.10;;;11.20;1.00;;;;;;5008032;28;20467;-90
2023/10/18 14:50:11;;;;;;;5.00;4.60;;;11.80;1.00;;;;;;5004471;28;20456;-90
2023/10/18 14:52:42;;;;;;;8.83;5.20;;;11.40;1.00;;;;;;5016417;28;20524;-89
2023/10/18 14:55:29;;;;;;;7.50;6.00;;;11.40;1.00;;;;;;5018307;28;20507;-90
2023/10/18 14:58:23;;;;;;;5.80;5.20;;;11.30;1.00;;;;;;5011290;28;20859;-91
2023/10/18 15:01:10;;;;;;;7.00;5.33;;;11.30;1.00;;;;;;5003300;28;20436;-91
2023/10/18 15:03:49;;;;;;;9.50;5.90;;;11.30;1.00;;;;;;5016179;28;20439;-91
2023/10/18 15:09:24;;;;;;;7.27;5.03;;;10.80;1.00;;;;;;5003672;28;20475;-90
2023/10/18 15:12:04;;;;;;;8.00;6.50;;;11.30;1.00;;;;;;5009536;28;20459;-91
2023/10/18 15:30:52;;;;;;;6.63;5.00;;;10.90;1.00;;;;;;4981610;28;20441;-90
2023/10/18 15:33:34;;;;;;;10.07;7.87;;;10.80;1.00;;;;;;4985676;28;20464;-90
2023/10/18 15:36:19;;;;;;;9.37;7.43;;;10.80;1.00;;;;;;5021754;28;20467;-90
2023/10/18 16:03:52;;;;;;;7.10;5.00;;;10.10;1.00;;;;;;4921541;29;20440;-90
2023/10/18 16:06:22;;;;;;;7.40;5.10;;;10.30;1.00;;;;;;4927596;29;20526;-90
2023/10/18 16:09:10;;;;;;;;;;;;;;;;;;;;;
2023/10/18 16:17:46;;;;;;;11.33;8.07;;;10.10;1.00;;;;;;4918508;28;20437;-89
2023/10/18 16:23:52;;;;;;;11.17;7.33;;;10.80;1.00;;;;;;4982806;28;20413;-90
2023/10/18 16:26:56;;;;;;;7.50;6.70;;;9.80;1.00;;;;;;4992598;28;20572;-92
2023/10/18 16:29:46;;;;;;;8.77;6.80;;;9.90;1.00;;;;;;5246090;23;20495;-90
2023/10/18 18:33:42;;;;;;;14.60;9.37;;;8.20;74.60;;;;;;4740598;26;20475;-92
2023/10/18 18:36:11;;;;;;;12.97;10.40;;;;;;;;;;4985723;28;20447;-92
2023/10/18 18:38:39;;;;;;;16.43;11.27;;;;;;;;;;4990961;28;20435;-91
2023/10/18 18:41:08;;;;;;;16.40;11.50;;;;;;;;;;4996084;28;20442;-91
2023/10/18 18:43:43;;;;;;;18.50;10.97;;;8.40;1.00;;;;;;4997746;28;20448;-92
2023/10/18 18:46:12;;;;;;;16.73;12.00;;;8.30;1.00;;;;;;4998294;28;20547;-92
2023/10/18 18:56:55;;;;;;;11.50;10.30;;;8.20;1.00;;;;;;5013715;28;20457;-92
2023/10/18 18:59:37;;;;;;;10.63;9.50;;;8.30;1.00;;;;;;5017234;28;20401;-93
2023/10/18 19:05:20;;;;;;;12.90;9.57;;;8.30;99.90;;;;;;5018016;28;20402;-91
2023/10/18 19:07:57;;;;;;;11.67;10.50;;;8.20;1.00;;;;;;5034571;28;20490;-91
2023/10/18 19:10:27;;;;;;;17.23;10.50;;;8.30;99.90;;;;;;5037813;28;20440;-90
2023/10/18 19:12:56;;;;;;;15.07;12.07;;;8.30;99.90;;;;;;5034340;28;20445;-90
2023/10/18 19:15:24;;;;;;;12.47;10.97;;;8.20;1.00;;;;;;5029146;28;20422;-91
2023/10/18 19:17:53;;;;;;;12.97;10.60;;;;;;;;;;5026023;28;20926;-93
2023/10/18 19:20:21;;;;;;;13.63;10.70;;;;;;;;;;5029328;28;20447;-89
2023/10/18 19:22:49;;;;;;;12.20;9.90;;;8.10;1.00;;;;;;5028530;28;20996;-91
2023/10/18 19:25:17;;;;;;;13.07;11.17;;;8.10;1.00;;;;;;5024031;28;20445;-90
2023/10/18 19:27:47;;;;;;;10.73;9.47;;;8.20;1.00;;;;;;5023152;28;20509;-90
2023/10/18 19:30:16;;;;;;;14.20;10.83;;;8.10;1.00;;;;;;5029208;28;20439;-89
2023/10/18 19:32:43;;;;;;;15.17;10.10;;;;;;;;;;5030093;28;20505;-90
2023/10/18 19:35:14;;;;;;;17.60;10.63;;;;;;;;;;5027966;28;21000;-91
2023/10/18 19:37:43;;;;;;;15.17;10.03;;;;;;;;;;5028928;28;20429;-91
2023/10/18 19:40:13;;;;;;;11.90;9.80;;;8.70;1.00;;;;;;5029351;28;20525;-91
2023/10/18 19:42:50;;;;;;;12.23;9.97;;;;;;;;;;5029904;28;20475;-91
2023/10/18 19:45:18;;;;;;;11.93;10.00;;;8.00;1.00;;;;;;5032422;28;20387;-90
2023/10/18 19:47:45;;;;;;;15.10;10.47;;;8.00;1.00;;;;;;5031126;28;20514;-91
2023/10/18 19:50:12;;;;;;;17.70;13.10;;;8.00;1.00;;;;;;5032927;28;20892;-91
2023/10/18 19:52:39;;;;;;;17.17;12.10;;;8.00;1.00;;;;;;5031079;28;20480;-91
2023/10/18 19:55:07;;;;;;;15.20;11.10;;;8.10;99.90;;;;;;5026207;28;20592;-90
2023/10/18 19:57:34;;;;;;;13.77;11.10;;;;;;;;;;5027452;28;20433;-90
2023/10/18 20:00:02;;;;;;;13.77;11.17;;;;;;;;;;5027287;28;20522;-90
2023/10/18 20:02:31;;;;;;;12.00;10.40;;;8.00;1.00;;;;;;5029496;28;20473;-90
2023/10/18 20:04:59;;;;;;;14.00;10.17;;;;;;;;;;5025766;28;20475;-90
2023/10/18 20:07:26;;;;;;;17.30;11.50;;;;;;;;;;5029639;28;20557;-91
2023/10/18 20:09:54;;;;;;;17.23;10.67;;;7.90;1.00;;;;;;5033246;28;20810;-91
2023/10/18 20:12:21;;;;;;;12.43;10.67;;;;;;;;;;5034326;28;20491;-91
2023/10/18 20:14:49;;;;;;;14.63;11.93;;;;;;;;;;5038498;28;20475;-89
2023/10/18 20:17:16;;;;;;;16.17;11.93;;;;;;;;;;5038582;28;20459;-90
2023/10/18 20:19:45;;;;;;;14.97;10.83;;;8.00;1.00;;;;;;5039523;28;20443;-90
2023/10/18 20:22:12;;;;;;;16.50;12.10;;;8.00;43.70;;;;;;5036389;28;20497;-90
2023/10/18 20:24:40;;;;;;;16.87;11.60;;;9.80;1.00;;;;;;5030666;28;20530;-90
2023/10/18 20:27:12;;;;;;;16.13;10.60;;;8.10;1.00;;;;;;5030338;28;20538;-90
2023/10/18 20:29:40;;;;;;;14.67;11.50;;;9.70;1.00;;;;;;5008887;28;20767;-90
2023/10/18 20:32:07;;;;;;;15.43;11.90;;;8.20;1.00;;;;;;5010253;28;20457;-91
2023/10/18 20:34:35;;;;;;;16.10;12.40;;;8.20;1.00;;;;;;5008847;28;20438;-91
2023/10/18 20:37:04;;;;;;;16.03;11.40;;;8.20;1.00;;;;;;5008709;28;20464;-90
2023/10/18 20:39:32;;;;;;;16.70;12.70;;;;;;;;;;5018754;28;20440;-91
2023/10/18 20:41:59;;;;;;;16.40;13.33;;;7.90;99.90;;;;;;5020573;28;20470;-91
2023/10/18 20:44:31;;;;;;;19.47;13.10;;;8.60;99.90;;;;;;5020582;28;20441;-92
2023/10/18 20:47:02;;;;;;;19.00;13.10;;;8.30;1.00;;;;;;5020537;28;20433;-93
2023/10/18 20:49:36;;;;;;;15.90;12.90;;;8.30;1.00;;;;;;5016883;28;20418;-90
2023/10/18 20:52:14;;;;;;;15.73;11.20;;;8.30;1.00;;;;;;5009145;28;20443;-92
2023/10/18 20:54:59;;;;;;;15.13;12.27;;;8.30;1.00;;;;;;5008608;28;20463;-91
2023/10/18 20:57:31;;;;;;;15.20;10.93;;;;;;;;;;5011734;28;20436;-91
2023/10/18 20:59:58;;;;;;;14.17;10.93;;;8.30;1.00;;;;;;5011593;28;20430;-90
2023/10/18 21:02:44;;;;;;;15.43;12.03;;;8.90;1.00;;;;;;5011143;28;20523;-90
2023/10/18 21:05:27;;;;;;;16.30;12.60;;;7.50;1.00;;;;;;5010087;28;20536;-91
2023/10/18 21:08:03;;;;;;;16.67;12.80;;;8.20;1.00;;;;;;5019063;28;20464;-92
2023/10/18 21:10:32;;;;;;;17.30;12.77;;;8.00;19.10;;;;;;5013294;28;20432;-91
2023/10/18 21:18:19;;;;;;;14.83;11.30;;;;;;;;;;4995112;28;20440;-91
2023/10/18 21:20:46;;;;;;;19.47;13.00;;;;;;;;;;4993417;28;20441;-91
2023/10/18 21:23:15;;;;;;;14.90;11.70;;;8.20;1.00;;;;;;5009220;28;20978;-91
2023/10/18 21:25:42;;;;;;;16.80;12.23;;;;;;;;;;5016857;28;20510;-90
2023/10/18 21:37:01;;;;;;;16.90;12.80;;;8.10;1.00;;;;;;5011428;28;20519;-91
2023/10/18 22:27:14;;;;;;;16.30;12.83;;;7.50;1.00;;;;;;4874766;26;20505;-91
2023/10/18 22:30:07;;;;;;;17.23;11.50;;;8.10;1.00;;;;;;4995021;28;20444;-92
2023/10/18 22:32:52;;;;;;;16.70;12.70;;;7.90;1.00;;;;;;4998628;28;20455;-92
2023/10/18 22:38:50;;;;;;;14.70;11.20;;;7.90;1.00;;;;;;4988387;28;20543;-92
2023/10/18 22:44:40;;;;;;;17.33;11.10;;;7.90;1.00;;;;;;4994293;28;20485;-92
2023/10/18 22:47:26;;;;;;;21.23;12.30;;;7.90;1.00;;;;;;4998922;28;20465;-92
2023/10/18 22:56:10;;;;;;;17.83;11.27;;;;;;;;;;4991579;28;20434;-92
2023/10/18 22:58:52;;;;;;;15.57;12.53;;;7.90;1.00;;;;;;4995115;28;20461;-92
2023/10/18 23:05:01;;;;;;;16.00;11.97;;;7.70;99.90;;;;;;4982166;28;20441;-92
2023/10/18 23:10:56;;;;;;;15.60;12.60;;;7.90;1.00;;;;;;4994996;28;20420;-93
2023/10/18 23:14:08;;;;;;;18.37;13.03;;;7.90;1.00;;;;;;4992786;28;20449;-92
2023/10/18 23:17:19;;;;;;;16.80;12.43;;;7.90;1.00;;;;;;4992552;28;20479;-92
2023/10/18 23:20:56;;;;;;;18.83;12.83;;;7.90;1.00;;;;;;4994122;28;20439;-92
2023/10/18 23:23:43;;;;;;;14.77;10.97;;;8.00;1.00;;;;;;4993868;28;20971;-93
2023/10/18 23:29:05;;;;;;;14.32;11.07;;;;;;;;;;4995500;28;20460;-92
